Juist Airport

EDWJ · Basse-Saxe, Allemagne

METAR anciennes EDWJ · Juist Airport

Tu vois ci-dessous les METAR des derniers jours. Sélectionne une année pour parcourir les METAR plus anciens, à partir de l'année 2007.

1 décembre 2022

Temps Code Temps Temp. Vue Base cloud Vent METAR/SPECI
11:20
I
5 °C 4,5 km 900 ft 090° 090° 4 kt SPECI ETNT 011020Z 09004KT 4500 BR BKN009 BKN030 05/04 Q1029 BLACKGRN
11:20
I
5 °C 4,5 km 900 ft 090° 090° 4 kt METAR ETNT 011020Z 09004KT 4500 BR BKN009 BKN030 05/04 Q1029 BLACKGRN
10:20
I
5 °C 4,5 km 900 ft 090° 090° 4 kt METAR ETNT 010920Z 09004KT 4500 BR BKN009 BKN030 05/04 Q1029 BLACKGRN
09:20
I
5 °C 4 km 2.700 ft 090° 090° 5 kt METAR ETNT 010820Z 09005KT 4000 BR SCT009 BKN027 05/04 Q1028 BLACKGRN
08:20
I
5 °C 4 km 2.400 ft 080° 080° 2 kt METAR ETNT 010720Z 08002KT 4000 BR SCT009 BKN024 05/04 Q1028 BLACKGRN
07:20
I
5 °C 4 km 2.200 ft 090° 090° 3 kt METAR ETNT 010620Z 09003KT 4000 BR FEW009 BKN022 05/04 Q1028 BLACKGRN
06:20
I
5 °C 4,5 km 2.300 ft 080° 080° 2 kt METAR ETNT 010520Z 08002KT 4500 BR FEW009 BKN023 05/04 Q1028 BLACKGRN
05:20
U
5 °C 0 m - 040° 040° 2 kt METAR ETNT 010420Z AUTO 04002KT //// // ////// 05/04 Q1027 ///
04:20
U
5 °C 0 m - 030° 030° 2 kt METAR ETNT 010320Z AUTO 03002KT //// // ////// 05/04 Q1027 ///
03:20
U
5 °C 0 m - 030° 030° 2 kt METAR ETNT 010220Z AUTO 03002KT //// // ////// 05/04 Q1028 ///
02:20
U
5 °C 0 m - 030° 030° 2 kt METAR ETNT 010120Z AUTO 03002KT //// // ////// 05/04 Q1027 ///
01:20
U
5 °C 0 m - 030° 030° 3 kt METAR ETNT 010020Z AUTO 03003KT //// // ////// 05/04 Q1027 ///
00:20
U
5 °C 0 m - 040° 040° 4 kt METAR ETNT 302320Z AUTO 04004KT //// // ////// 05/04 Q1028 ///

30 novembre 2022

Temps Code Temps Temp. Vue Base cloud Vent METAR/SPECI
23:20
U
5 °C 0 m - 060° 060° 4 kt METAR ETNT 302220Z AUTO 06004KT //// // ////// 05/04 Q1027 ///
22:20
I
5 °C 4 km 2.000 ft 070° 070° 3 kt METAR ETNT 302120Z 07003KT 4000 BR BKN020 05/04 Q1027 BLACKGRN
21:20
I
5 °C 4 km 900 ft 050° 050° 4 kt METAR ETNT 302020Z 05004KT 4000 BR BKN009 05/04 Q1027 BLACKGRN
20:20
I
5 °C 4 km 900 ft 060° 060° 3 kt METAR ETNT 301920Z 06003KT 4000 BR BKN009 05/04 Q1027 BLACKGRN
19:20
I
5 °C 4 km 900 ft Var Var 3 kt METAR ETNT 301820Z VRB03KT 4000 -RADZ BR BKN009 05/04 Q1026 BLACKGRN
18:20
I
5 °C 4 km 900 ft 040° 040° 4 kt METAR ETNT 301720Z 04004KT 4000 -RADZ BR BKN009 05/04 Q1026 BLACKGRN
17:20
I
5 °C 4 km 900 ft 050° 050° 3 kt METAR ETNT 301620Z 05003KT 4000 -RADZ BR BKN009 05/04 Q1026 BLACKGRN
16:20
I
5 °C 4 km 900 ft 050° 050° 4 kt METAR ETNT 301520Z 05004KT 4000 BR BKN009 05/04 Q1025 BLACKGRN
15:20
I
5 °C 4,5 km 900 ft 060° 060° 4 kt METAR ETNT 301420Z 06004KT 4500 BR BKN009 05/04 Q1025 BLACKGRN
14:20
I
5 °C 4,5 km 800 ft 050° 050° 4 kt METAR ETNT 301320Z 05004KT 4500 BR FEW004 BKN008 05/04 Q1025 BLACKGRN
13:20
I
5 °C 4,5 km 800 ft 050° 050° 4 kt METAR ETNT 301220Z 05004KT 4500 BR FEW004 BKN008 05/04 Q1025 BLACKGRN
12:20
I
5 °C 3,8 km 800 ft 040° 040° 4 kt METAR ETNT 301120Z 04004KT 3800 BR FEW005 BKN008 05/04 Q1025 BLACKGRN
11:20
I
5 °C 4 km 800 ft Var Var 3 kt METAR ETNT 301020Z VRB03KT 4000 BR FEW004 BKN008 05/04 Q1025 BLACKGRN
10:45
I
5 °C 4 km 800 ft 080° 080° 5 kt SPECI ETNT 300945Z 08005KT 4000 BR FEW004 BKN008 05/04 Q1025 BLACKGRN
10:20
L
5 °C 3,7 km 400 ft 090° 090° 4 kt METAR ETNT 300920Z 09004KT 3700 BR BKN004 BKN010 05/04 Q1025 BLACKYLO
09:20
L
5 °C 3,7 km 400 ft 070° 070° 4 kt METAR ETNT 300820Z 07004KT 3700 BR BKN004 05/04 Q1024 BLACKYLO
08:20
L
5 °C 3 km 300 ft 060° 060° 3 kt METAR ETNT 300720Z 06003KT 3000 BR BKN003 05/04 Q1024 BLACKYLO
07:20
L
5 °C 4 km 300 ft 080° 080° 5 kt METAR ETNT 300620Z 08005KT 4000 -DZ BR BKN003 05/04 Q1023 BLACKYLO
06:20
L
5 °C 3,5 km 200 ft 060° 060° 4 kt METAR ETNT 300520Z 06004KT 3500 -RADZ BR BKN002 05/05 Q1023 BLACKAMB
05:20
U
5 °C 0 m - 070° 070° 3 kt METAR ETNT 300420Z AUTO 07003KT //// // ////// 05/05 Q1023 ///
04:20
U
5 °C 0 m - 040° 040° 3 kt METAR ETNT 300320Z AUTO 04003KT //// // ////// 05/04 Q1022 ///
03:20
U
5 °C 0 m - 070° 070° 3 kt METAR ETNT 300220Z AUTO 07003KT //// // ////// 05/05 Q1022 ///
02:20
U
5 °C 0 m - 050° 050° 3 kt METAR ETNT 300120Z AUTO 05003KT //// // ////// 05/05 Q1022 ///
01:20
U
5 °C 0 m - 050° 050° 4 kt METAR ETNT 300020Z AUTO 05004KT //// // ////// 05/05 Q1022 ///
00:20
U
5 °C 0 m - 040° 040° 4 kt METAR ETNT 292320Z AUTO 04004KT //// // ////// 05/05 Q1022 ///

29 novembre 2022

Temps Code Temps Temp. Vue Base cloud Vent METAR/SPECI
23:20
U
5 °C 0 m - 050° 050° 3 kt METAR ETNT 292220Z AUTO 05003KT //// // ////// 05/05 Q1021 ///
22:20
L
5 °C 2,2 km 300 ft 040° 040° 4 kt METAR ETNT 292120Z 04004KT 2200 BR BKN003 05/05 Q1021 BLACKYLO
21:20
L
5 °C 2,2 km 300 ft Var Var 3 kt METAR ETNT 292020Z VRB03KT 2200 BR BKN003 05/05 Q1021 BLACKYLO
20:20
L
5 °C 2,2 km 300 ft 050° 050° 2 kt METAR ETNT 291920Z 05002KT 2200 BR BKN003 05/05 Q1020 BLACKYLO
19:20
L
5 °C 2,2 km 300 ft 050° 050° 4 kt METAR ETNT 291820Z 05004KT 2200 BR BKN003 05/05 Q1020 BLACKYLO
19:09
L
5 °C 1,2 km 300 ft 060° 060° 4 kt METAR ETNT 291809Z 06004KT 1200 BR OVC003 05/05 Q1020 BLACKAMB
18:20
L
5 °C 600 m 200 ft 040° 040° 6 kt METAR ETNT 291720Z 04006KT 0600 -DZ FG OVC002 05/05 Q1019 BLACKRED
17:20
L
5 °C 600 m 200 ft 040° 040° 4 kt METAR ETNT 291620Z 04004KT 0600 -DZ FG OVC002 05/05 Q1019 BLACKRED
16:20
L
6 °C 600 m 200 ft 060° 060° 5 kt METAR ETNT 291520Z 06005KT 0600 -DZ FG OVC002 06/05 Q1019 BLACKRED
15:20
L
6 °C 600 m 200 ft 070° 070° 5 kt METAR ETNT 291420Z 07005KT 0600 -DZ FG OVC002 06/06 Q1018 BLACKRED
14:20
L
6 °C 600 m 200 ft 050° 050° 4 kt METAR ETNT 291320Z 05004KT 0600 -DZ FG BKN002 06/06 Q1018 BLACKRED
13:20
L
6 °C 800 m 200 ft 090° 090° 4 kt METAR ETNT 291220Z 09004KT 0800 -DZ FG BKN002 06/06 Q1017 BLACKAMB
12:20
L
6 °C 500 m 100 ft 100° 100° 6 kt METAR ETNT 291120Z 10006KT 0500 -DZ FG BKN001 06/06 Q1017 BLACKRED
12:10
L
6 °C 600 m 100 ft 100° 100° 5 kt METAR ETNT 291110Z 10005KT 0600 -DZ FG BKN001 06/06 Q1017 BLACKRED
11:20
L
6 °C 900 m 100 ft 100° 100° 5 kt METAR ETNT 291020Z 10005KT 0900 -DZ FG BKN001 06/06 Q1016 BLACKRED

Nous et des tiers suivons ton comportement Internet sur notre site Web à l'aide de cookies. Si tu continues, nous supposons que tu es d'accord avec notre Politique en matière de cookies.